sensor_id;sensor_type;location;lat;lon;timestamp;temperature;humidity
35796;DHT22;21916;52.428;13.302;2024-02-23T00:01:15;10.40;99.90
35796;DHT22;21916;52.428;13.302;2024-02-23T00:03:41;10.40;99.90
35796;DHT22;21916;52.428;13.302;2024-02-23T00:06:07;10.50;99.90
35796;DHT22;21916;52.428;13.302;2024-02-23T00:08:34;10.50;99.90
35796;DHT22;21916;52.428;13.302;2024-02-23T00:11:00;10.50;99.90
35796;DHT22;21916;52.428;13.302;2024-02-23T00:13:26;10.40;99.90
35796;DHT22;21916;52.428;13.302;2024-02-23T00:15:51;10.50;99.90
35796;DHT22;21916;52.428;13.302;2024-02-23T00:18:17;10.40;99.90
35796;DHT22;21916;52.428;13.302;2024-02-23T00:20:43;10.50;99.90
35796;DHT22;21916;52.428;13.302;2024-02-23T00:23:09;10.50;99.90
35796;DHT22;21916;52.428;13.302;2024-02-23T00:25:35;10.60;99.90
35796;DHT22;21916;52.428;13.302;2024-02-23T00:28:00;10.60;99.90
35796;DHT22;21916;52.428;13.302;2024-02-23T00:30:26;10.60;99.90
35796;DHT22;21916;52.428;13.302;2024-02-23T00:32:52;10.70;99.90
35796;DHT22;21916;52.428;13.302;2024-02-23T00:35:18;10.60;99.90
35796;DHT22;21916;52.428;13.302;2024-02-23T00:37:44;10.60;99.90
35796;DHT22;21916;52.428;13.302;2024-02-23T00:40:10;10.60;99.90
35796;DHT22;21916;52.428;13.302;2024-02-23T00:42:36;10.50;99.90
35796;DHT22;21916;52.428;13.302;2024-02-23T00:45:03;10.50;99.90
35796;DHT22;21916;52.428;13.302;2024-02-23T00:47:29;10.50;99.90
35796;DHT22;21916;52.428;13.302;2024-02-23T00:49:54;10.60;99.90
35796;DHT22;21916;52.428;13.302;2024-02-23T00:52:20;10.60;99.90
35796;DHT22;21916;52.428;13.302;2024-02-23T00:54:46;10.70;99.90
35796;DHT22;21916;52.428;13.302;2024-02-23T00:57:11;10.80;99.90
35796;DHT22;21916;52.428;13.302;2024-02-23T00:59:37;10.80;99.90
35796;DHT22;21916;52.428;13.302;2024-02-23T01:02:03;10.80;99.90
35796;DHT22;21916;52.428;13.302;2024-02-23T01:04:28;10.80;99.90
35796;DHT22;21916;52.428;13.302;2024-02-23T01:06:54;10.80;99.90
35796;DHT22;21916;52.428;13.302;2024-02-23T01:09:20;10.80;99.90
35796;DHT22;21916;52.428;13.302;2024-02-23T01:11:47;10.90;99.90
35796;DHT22;21916;52.428;13.302;2024-02-23T01:14:13;11.00;99.90
35796;DHT22;21916;52.428;13.302;2024-02-23T01:16:39;11.00;99.90
35796;DHT22;21916;52.428;13.302;2024-02-23T01:19:04;11.00;99.90
35796;DHT22;21916;52.428;13.302;2024-02-23T01:21:30;10.90;99.90
35796;DHT22;21916;52.428;13.302;2024-02-23T01:23:56;11.10;99.90
35796;DHT22;21916;52.428;13.302;2024-02-23T01:26:23;11.10;99.90
35796;DHT22;21916;52.428;13.302;2024-02-23T01:28:49;11.10;99.90
35796;DHT22;21916;52.428;13.302;2024-02-23T01:31:15;11.10;99.90
35796;DHT22;21916;52.428;13.302;2024-02-23T01:33:40;11.20;99.90
35796;DHT22;21916;52.428;13.302;2024-02-23T01:36:07;11.20;99.90
35796;DHT22;21916;52.428;13.302;2024-02-23T01:38:33;11.20;99.90
35796;DHT22;21916;52.428;13.302;2024-02-23T01:40:59;11.20;99.90
35796;DHT22;21916;52.428;13.302;2024-02-23T01:43:25;11.30;99.90
35796;DHT22;21916;52.428;13.302;2024-02-23T01:45:51;11.30;99.90
35796;DHT22;21916;52.428;13.302;2024-02-23T01:48:17;11.30;99.90
35796;DHT22;21916;52.428;13.302;2024-02-23T01:50:44;11.30;99.90
35796;DHT22;21916;52.428;13.302;2024-02-23T01:53:10;11.30;99.90
35796;DHT22;21916;52.428;13.302;2024-02-23T01:55:41;11.30;99.90
35796;DHT22;21916;52.428;13.302;2024-02-23T01:58:07;11.40;99.90
35796;DHT22;21916;52.428;13.302;2024-02-23T02:00:34;11.40;99.90
35796;DHT22;21916;52.428;13.302;2024-02-23T02:03:02;11.40;99.90
35796;DHT22;21916;52.428;13.302;2024-02-23T02:05:28;11.40;99.90
35796;DHT22;21916;52.428;13.302;2024-02-23T02:07:55;11.30;99.90
35796;DHT22;21916;52.428;13.302;2024-02-23T02:10:25;11.40;99.90
35796;DHT22;21916;52.428;13.302;2024-02-23T02:12:51;11.20;99.90
35796;DHT22;21916;52.428;13.302;2024-02-23T02:15:17;11.10;99.90
35796;DHT22;21916;52.428;13.302;2024-02-23T02:17:43;11.10;99.90
35796;DHT22;21916;52.428;13.302;2024-02-23T02:20:12;11.00;99.90
35796;DHT22;21916;52.428;13.302;2024-02-23T02:22:39;10.90;99.90
35796;DHT22;21916;52.428;13.302;2024-02-23T02:25:05;10.80;99.90
35796;DHT22;21916;52.428;13.302;2024-02-23T02:27:32;10.70;99.90
35796;DHT22;21916;52.428;13.302;2024-02-23T02:29:58;10.70;99.90
35796;DHT22;21916;52.428;13.302;2024-02-23T02:32:24;10.70;99.90
35796;DHT22;21916;52.428;13.302;2024-02-23T02:34:50;10.60;99.90
35796;DHT22;21916;52.428;13.302;2024-02-23T02:37:15;10.50;99.90
35796;DHT22;21916;52.428;13.302;2024-02-23T02:39:41;10.50;99.90
35796;DHT22;21916;52.428;13.302;2024-02-23T02:42:07;10.50;99.90
35796;DHT22;21916;52.428;13.302;2024-02-23T02:44:34;10.40;99.90
35796;DHT22;21916;52.428;13.302;2024-02-23T02:47:00;10.40;99.90
35796;DHT22;21916;52.428;13.302;2024-02-23T02:49:27;10.30;99.90
35796;DHT22;21916;52.428;13.302;2024-02-23T02:51:53;10.30;99.90
35796;DHT22;21916;52.428;13.302;2024-02-23T02:54:19;10.30;99.90
35796;DHT22;21916;52.428;13.302;2024-02-23T02:56:47;10.20;99.90
35796;DHT22;21916;52.428;13.302;2024-02-23T02:59:13;10.20;99.90
35796;DHT22;21916;52.428;13.302;2024-02-23T03:01:39;10.20;99.90
35796;DHT22;21916;52.428;13.302;2024-02-23T03:04:05;10.20;99.90
35796;DHT22;21916;52.428;13.302;2024-02-23T03:06:31;10.20;99.90
35796;DHT22;21916;52.428;13.302;2024-02-23T03:08:57;10.10;99.90
35796;DHT22;21916;52.428;13.302;2024-02-23T03:11:23;10.10;99.90
35796;DHT22;21916;52.428;13.302;2024-02-23T03:13:49;10.00;99.90
35796;DHT22;21916;52.428;13.302;2024-02-23T03:16:16;10.00;99.90
35796;DHT22;21916;52.428;13.302;2024-02-23T03:18:43;10.00;99.90
35796;DHT22;21916;52.428;13.302;2024-02-23T03:21:08;10.00;99.90
35796;DHT22;21916;52.428;13.302;2024-02-23T03:23:38;9.90;99.90
35796;DHT22;21916;52.428;13.302;2024-02-23T03:26:06;9.90;99.90
35796;DHT22;21916;52.428;13.302;2024-02-23T03:28:32;9.80;99.90
35796;DHT22;21916;52.428;13.302;2024-02-23T03:31:00;9.80;99.90
35796;DHT22;21916;52.428;13.302;2024-02-23T03:33:25;9.80;99.90
35796;DHT22;21916;52.428;13.302;2024-02-23T03:35:52;9.80;99.90
35796;DHT22;21916;52.428;13.302;2024-02-23T03:38:21;9.90;99.90
35796;DHT22;21916;52.428;13.302;2024-02-23T03:40:52;9.80;99.90
35796;DHT22;21916;52.428;13.302;2024-02-23T03:43:17;9.80;99.90
35796;DHT22;21916;52.428;13.302;2024-02-23T03:45:43;9.80;99.90
35796;DHT22;21916;52.428;13.302;2024-02-23T03:48:09;9.80;99.90
35796;DHT22;21916;52.428;13.302;2024-02-23T03:50:35;9.70;99.90
35796;DHT22;21916;52.428;13.302;2024-02-23T03:53:01;9.70;99.90
35796;DHT22;21916;52.428;13.302;2024-02-23T03:55:27;9.70;99.90
35796;DHT22;21916;52.428;13.302;2024-02-23T03:57:53;9.60;99.90
35796;DHT22;21916;52.428;13.302;2024-02-23T04:00:19;9.70;99.90
35796;DHT22;21916;52.428;13.302;2024-02-23T04:02:49;9.60;99.90
35796;DHT22;21916;52.428;13.302;2024-02-23T04:05:15;9.60;99.90
35796;DHT22;21916;52.428;13.302;2024-02-23T04:07:44;9.60;99.90
35796;DHT22;21916;52.428;13.302;2024-02-23T04:10:10;9.60;99.90
35796;DHT22;21916;52.428;13.302;2024-02-23T04:12:35;9.60;99.90
35796;DHT22;21916;52.428;13.302;2024-02-23T04:15:01;9.60;99.90
35796;DHT22;21916;52.428;13.302;2024-02-23T04:17:30;9.60;99.90
35796;DHT22;21916;52.428;13.302;2024-02-23T04:19:56;9.60;99.90
35796;DHT22;21916;52.428;13.302;2024-02-23T04:22:22;9.50;99.90
35796;DHT22;21916;52.428;13.302;2024-02-23T04:24:48;9.50;99.90
35796;DHT22;21916;52.428;13.302;2024-02-23T04:27:14;9.50;99.90
35796;DHT22;21916;52.428;13.302;2024-02-23T04:29:39;9.50;99.90
35796;DHT22;21916;52.428;13.302;2024-02-23T04:32:08;9.40;99.90
35796;DHT22;21916;52.428;13.302;2024-02-23T04:34:34;9.40;99.90
35796;DHT22;21916;52.428;13.302;2024-02-23T04:37:03;9.30;99.90
35796;DHT22;21916;52.428;13.302;2024-02-23T04:39:29;9.20;99.90
35796;DHT22;21916;52.428;13.302;2024-02-23T04:41:55;9.20;99.90
35796;DHT22;21916;52.428;13.302;2024-02-23T04:44:20;9.20;99.90
35796;DHT22;21916;52.428;13.302;2024-02-23T04:46:46;9.20;99.90
35796;DHT22;21916;52.428;13.302;2024-02-23T04:49:12;9.20;99.90
35796;DHT22;21916;52.428;13.302;2024-02-23T04:51:38;9.10;99.90
35796;DHT22;21916;52.428;13.302;2024-02-23T04:54:07;9.10;99.90
35796;DHT22;21916;52.428;13.302;2024-02-23T04:56:35;9.10;99.90
35796;DHT22;21916;52.428;13.302;2024-02-23T04:59:01;9.00;99.90
35796;DHT22;21916;52.428;13.302;2024-02-23T05:01:27;9.00;99.90
35796;DHT22;21916;52.428;13.302;2024-02-23T05:03:55;9.00;99.90
35796;DHT22;21916;52.428;13.302;2024-02-23T05:06:21;9.00;99.90
35796;DHT22;21916;52.428;13.302;2024-02-23T05:08:47;9.00;99.90
35796;DHT22;21916;52.428;13.302;2024-02-23T05:11:14;9.00;99.90
35796;DHT22;21916;52.428;13.302;2024-02-23T05:13:41;8.90;99.90
35796;DHT22;21916;52.428;13.302;2024-02-23T05:16:07;8.90;99.90
35796;DHT22;21916;52.428;13.302;2024-02-23T05:18:33;8.80;99.90
35796;DHT22;21916;52.428;13.302;2024-02-23T05:21:01;8.80;99.90
35796;DHT22;21916;52.428;13.302;2024-02-23T05:23:27;8.70;99.90
35796;DHT22;21916;52.428;13.302;2024-02-23T05:25:53;8.70;99.90
35796;DHT22;21916;52.428;13.302;2024-02-23T05:28:18;8.60;99.90
35796;DHT22;21916;52.428;13.302;2024-02-23T05:30:44;8.50;99.90
35796;DHT22;21916;52.428;13.302;2024-02-23T05:33:10;8.40;99.90
35796;DHT22;21916;52.428;13.302;2024-02-23T05:35:36;8.40;99.90
35796;DHT22;21916;52.428;13.302;2024-02-23T05:38:02;8.20;99.90
35796;DHT22;21916;52.428;13.302;2024-02-23T05:40:28;8.20;99.90
35796;DHT22;21916;52.428;13.302;2024-02-23T05:42:54;8.10;99.90
35796;DHT22;21916;52.428;13.302;2024-02-23T05:45:20;8.10;99.90
35796;DHT22;21916;52.428;13.302;2024-02-23T05:47:46;8.10;99.90
35796;DHT22;21916;52.428;13.302;2024-02-23T05:50:12;8.10;99.90
35796;DHT22;21916;52.428;13.302;2024-02-23T05:52:38;8.00;99.90
35796;DHT22;21916;52.428;13.302;2024-02-23T05:55:05;8.00;99.90
35796;DHT22;21916;52.428;13.302;2024-02-23T05:57:31;7.90;99.90
35796;DHT22;21916;52.428;13.302;2024-02-23T05:59:57;7.90;99.90
35796;DHT22;21916;52.428;13.302;2024-02-23T06:02:23;7.90;99.90
35796;DHT22;21916;52.428;13.302;2024-02-23T06:04:49;7.90;99.90
35796;DHT22;21916;52.428;13.302;2024-02-23T06:07:15;7.80;99.90
35796;DHT22;21916;52.428;13.302;2024-02-23T06:09:42;7.80;99.90
35796;DHT22;21916;52.428;13.302;2024-02-23T06:12:08;7.80;99.90
35796;DHT22;21916;52.428;13.302;2024-02-23T06:14:35;7.80;99.90
35796;DHT22;21916;52.428;13.302;2024-02-23T06:17:04;7.80;99.90
35796;DHT22;21916;52.428;13.302;2024-02-23T06:19:32;7.70;99.90
35796;DHT22;21916;52.428;13.302;2024-02-23T06:21:58;7.70;99.90
35796;DHT22;21916;52.428;13.302;2024-02-23T06:24:31;7.70;99.90
35796;DHT22;21916;52.428;13.302;2024-02-23T06:26:57;7.70;99.90
35796;DHT22;21916;52.428;13.302;2024-02-23T06:29:23;7.60;99.90
35796;DHT22;21916;52.428;13.302;2024-02-23T06:31:49;7.60;99.90
35796;DHT22;21916;52.428;13.302;2024-02-23T06:34:15;7.60;99.90
35796;DHT22;21916;52.428;13.302;2024-02-23T06:36:42;7.60;99.90
35796;DHT22;21916;52.428;13.302;2024-02-23T06:39:07;7.60;99.90
35796;DHT22;21916;52.428;13.302;2024-02-23T06:41:34;7.60;99.90
35796;DHT22;21916;52.428;13.302;2024-02-23T06:44:00;7.60;99.90
35796;DHT22;21916;52.428;13.302;2024-02-23T06:46:26;7.60;99.90
35796;DHT22;21916;52.428;13.302;2024-02-23T06:48:53;7.60;99.90
35796;DHT22;21916;52.428;13.302;2024-02-23T06:51:20;7.70;99.90
35796;DHT22;21916;52.428;13.302;2024-02-23T06:53:46;7.70;99.90
35796;DHT22;21916;52.428;13.302;2024-02-23T06:56:11;7.80;99.90
35796;DHT22;21916;52.428;13.302;2024-02-23T06:58:38;7.80;99.90
35796;DHT22;21916;52.428;13.302;2024-02-23T07:01:04;7.90;99.90
35796;DHT22;21916;52.428;13.302;2024-02-23T07:03:33;7.90;99.90
35796;DHT22;21916;52.428;13.302;2024-02-23T07:05:58;7.90;99.90
35796;DHT22;21916;52.428;13.302;2024-02-23T07:08:24;7.90;99.90
35796;DHT22;21916;52.428;13.302;2024-02-23T07:10:50;7.90;99.90
35796;DHT22;21916;52.428;13.302;2024-02-23T07:13:16;7.90;99.90
35796;DHT22;21916;52.428;13.302;2024-02-23T07:15:43;7.90;99.90
35796;DHT22;21916;52.428;13.302;2024-02-23T07:18:09;7.90;99.90
35796;DHT22;21916;52.428;13.302;2024-02-23T07:20:36;7.90;99.90
35796;DHT22;21916;52.428;13.302;2024-02-23T07:23:02;7.90;99.90
35796;DHT22;21916;52.428;13.302;2024-02-23T07:25:27;7.90;99.90
35796;DHT22;21916;52.428;13.302;2024-02-23T07:27:53;7.90;99.90
35796;DHT22;21916;52.428;13.302;2024-02-23T07:30:19;7.90;99.90
35796;DHT22;21916;52.428;13.302;2024-02-23T07:32:45;7.90;99.90
35796;DHT22;21916;52.428;13.302;2024-02-23T07:35:12;8.00;99.90
35796;DHT22;21916;52.428;13.302;2024-02-23T07:37:38;7.90;99.90
35796;DHT22;21916;52.428;13.302;2024-02-23T07:40:07;7.90;99.90
35796;DHT22;21916;52.428;13.302;2024-02-23T07:42:36;8.00;99.90
35796;DHT22;21916;52.428;13.302;2024-02-23T07:45:06;8.10;99.90
35796;DHT22;21916;52.428;13.302;2024-02-23T07:47:33;8.00;99.90
35796;DHT22;21916;52.428;13.302;2024-02-23T07:50:00;8.20;99.90
35796;DHT22;21916;52.428;13.302;2024-02-23T07:52:26;8.10;99.90
35796;DHT22;21916;52.428;13.302;2024-02-23T07:54:53;8.20;99.90
35796;DHT22;21916;52.428;13.302;2024-02-23T07:57:19;8.30;99.90
35796;DHT22;21916;52.428;13.302;2024-02-23T07:59:46;8.30;99.90
35796;DHT22;21916;52.428;13.302;2024-02-23T08:02:15;8.40;99.90
35796;DHT22;21916;52.428;13.302;2024-02-23T08:04:40;8.50;99.90
35796;DHT22;21916;52.428;13.302;2024-02-23T08:07:08;8.80;99.90
35796;DHT22;21916;52.428;13.302;2024-02-23T08:09:33;9.00;99.90
35796;DHT22;21916;52.428;13.302;2024-02-23T08:11:59;9.10;99.90
35796;DHT22;21916;52.428;13.302;2024-02-23T08:14:28;9.20;99.90
35796;DHT22;21916;52.428;13.302;2024-02-23T08:16:53;9.10;99.90
35796;DHT22;21916;52.428;13.302;2024-02-23T08:19:19;9.10;99.90
35796;DHT22;21916;52.428;13.302;2024-02-23T08:21:45;9.10;99.90
35796;DHT22;21916;52.428;13.302;2024-02-23T08:24:10;9.10;99.90
35796;DHT22;21916;52.428;13.302;2024-02-23T08:26:36;9.10;99.90
35796;DHT22;21916;52.428;13.302;2024-02-23T08:29:03;9.00;99.90
35796;DHT22;21916;52.428;13.302;2024-02-23T08:31:30;8.90;99.90
35796;DHT22;21916;52.428;13.302;2024-02-23T08:33:56;8.90;99.90
35796;DHT22;21916;52.428;13.302;2024-02-23T08:36:22;9.00;99.90
35796;DHT22;21916;52.428;13.302;2024-02-23T08:38:48;8.90;99.90
35796;DHT22;21916;52.428;13.302;2024-02-23T08:41:14;8.90;99.90
35796;DHT22;21916;52.428;13.302;2024-02-23T08:43:41;8.90;99.90
35796;DHT22;21916;52.428;13.302;2024-02-23T08:46:07;8.80;99.90
35796;DHT22;21916;52.428;13.302;2024-02-23T08:48:33;8.90;99.90
35796;DHT22;21916;52.428;13.302;2024-02-23T08:50:59;9.00;99.90
35796;DHT22;21916;52.428;13.302;2024-02-23T08:53:24;9.00;99.90
35796;DHT22;21916;52.428;13.302;2024-02-23T08:55:50;9.00;99.90
35796;DHT22;21916;52.428;13.302;2024-02-23T08:58:16;9.10;99.90
35796;DHT22;21916;52.428;13.302;2024-02-23T09:00:41;9.00;99.90
35796;DHT22;21916;52.428;13.302;2024-02-23T09:03:07;9.00;99.90
35796;DHT22;21916;52.428;13.302;2024-02-23T09:05:33;9.00;99.90
35796;DHT22;21916;52.428;13.302;2024-02-23T09:07:59;9.10;99.90
35796;DHT22;21916;52.428;13.302;2024-02-23T09:10:25;9.30;99.90
35796;DHT22;21916;52.428;13.302;2024-02-23T09:12:50;9.30;99.90
35796;DHT22;21916;52.428;13.302;2024-02-23T09:15:16;9.30;99.90
35796;DHT22;21916;52.428;13.302;2024-02-23T09:17:42;9.30;99.90
35796;DHT22;21916;52.428;13.302;2024-02-23T09:20:08;9.30;99.90
35796;DHT22;21916;52.428;13.302;2024-02-23T09:22:34;9.60;99.90
35796;DHT22;21916;52.428;13.302;2024-02-23T09:25:02;9.70;99.90
35796;DHT22;21916;52.428;13.302;2024-02-23T09:27:28;9.80;99.90
35796;DHT22;21916;52.428;13.302;2024-02-23T09:29:54;9.60;99.90
35796;DHT22;21916;52.428;13.302;2024-02-23T09:32:19;9.80;99.90
35796;DHT22;21916;52.428;13.302;2024-02-23T09:34:45;9.90;99.90
35796;DHT22;21916;52.428;13.302;2024-02-23T09:37:11;9.80;99.90
35796;DHT22;21916;52.428;13.302;2024-02-23T09:39:37;9.80;99.90
35796;DHT22;21916;52.428;13.302;2024-02-23T09:42:05;9.60;99.90
35796;DHT22;21916;52.428;13.302;2024-02-23T09:44:35;9.40;99.90
35796;DHT22;21916;52.428;13.302;2024-02-23T09:47:02;9.40;99.90
35796;DHT22;21916;52.428;13.302;2024-02-23T09:49:38;9.60;99.90
35796;DHT22;21916;52.428;13.302;2024-02-23T09:52:07;9.80;99.90
35796;DHT22;21916;52.428;13.302;2024-02-23T09:54:33;10.00;99.90
35796;DHT22;21916;52.428;13.302;2024-02-23T09:57:01;10.10;99.90
35796;DHT22;21916;52.428;13.302;2024-02-23T09:59:29;10.00;99.90
35796;DHT22;21916;52.428;13.302;2024-02-23T10:01:57;9.90;99.90
35796;DHT22;21916;52.428;13.302;2024-02-23T10:04:24;9.90;99.90
35796;DHT22;21916;52.428;13.302;2024-02-23T10:06:51;10.00;99.90
35796;DHT22;21916;52.428;13.302;2024-02-23T10:09:17;10.00;99.90
35796;DHT22;21916;52.428;13.302;2024-02-23T10:11:43;10.10;99.90
35796;DHT22;21916;52.428;13.302;2024-02-23T10:14:08;10.20;99.90
35796;DHT22;21916;52.428;13.302;2024-02-23T10:16:34;10.20;99.90
35796;DHT22;21916;52.428;13.302;2024-02-23T10:19:00;10.10;99.90
35796;DHT22;21916;52.428;13.302;2024-02-23T10:21:26;10.20;99.90
35796;DHT22;21916;52.428;13.302;2024-02-23T10:23:52;10.00;99.90
35796;DHT22;21916;52.428;13.302;2024-02-23T10:26:18;9.90;99.90
35796;DHT22;21916;52.428;13.302;2024-02-23T10:28:46;10.10;99.90
35796;DHT22;21916;52.428;13.302;2024-02-23T10:31:17;10.20;99.90
35796;DHT22;21916;52.428;13.302;2024-02-23T10:33:44;10.20;99.90
35796;DHT22;21916;52.428;13.302;2024-02-23T10:36:11;10.40;99.90
35796;DHT22;21916;52.428;13.302;2024-02-23T10:38:43;10.40;99.90
35796;DHT22;21916;52.428;13.302;2024-02-23T10:41:12;10.40;99.90
35796;DHT22;21916;52.428;13.302;2024-02-23T10:43:47;10.40;99.90
35796;DHT22;21916;52.428;13.302;2024-02-23T10:46:13;10.30;99.90
35796;DHT22;21916;52.428;13.302;2024-02-23T10:48:43;10.60;99.90
35796;DHT22;21916;52.428;13.302;2024-02-23T10:51:10;10.70;99.50
35796;DHT22;21916;52.428;13.302;2024-02-23T10:53:39;10.70;99.50
35796;DHT22;21916;52.428;13.302;2024-02-23T10:56:06;10.70;99.90
35796;DHT22;21916;52.428;13.302;2024-02-23T10:58:33;10.80;99.00
35796;DHT22;21916;52.428;13.302;2024-02-23T11:01:00;10.80;99.00
35796;DHT22;21916;52.428;13.302;2024-02-23T11:03:29;11.10;98.80
35796;DHT22;21916;52.428;13.302;2024-02-23T11:05:56;11.10;98.50
35796;DHT22;21916;52.428;13.302;2024-02-23T11:08:21;11.10;98.60
35796;DHT22;21916;52.428;13.302;2024-02-23T11:10:51;11.20;98.10
35796;DHT22;21916;52.428;13.302;2024-02-23T11:13:17;11.30;97.80
35796;DHT22;21916;52.428;13.302;2024-02-23T11:15:43;11.40;98.00
35796;DHT22;21916;52.428;13.302;2024-02-23T11:18:28;11.70;97.50
35796;DHT22;21916;52.428;13.302;2024-02-23T11:20:55;11.70;97.20
35796;DHT22;21916;52.428;13.302;2024-02-23T11:23:22;11.70;96.90
35796;DHT22;21916;52.428;13.302;2024-02-23T11:26:04;11.60;96.70
35796;DHT22;21916;52.428;13.302;2024-02-23T11:28:30;11.70;96.70
35796;DHT22;21916;52.428;13.302;2024-02-23T11:30:57;12.00;96.20
35796;DHT22;21916;52.428;13.302;2024-02-23T11:33:28;12.00;96.20
35796;DHT22;21916;52.428;13.302;2024-02-23T11:36:08;12.20;96.10
35796;DHT22;21916;52.428;13.302;2024-02-23T11:38:34;12.60;95.30
35796;DHT22;21916;52.428;13.302;2024-02-23T11:41:01;12.50;95.30
35796;DHT22;21916;52.428;13.302;2024-02-23T11:43:27;12.70;95.40
35796;DHT22;21916;52.428;13.302;2024-02-23T11:45:54;12.50;95.30
35796;DHT22;21916;52.428;13.302;2024-02-23T11:48:20;12.20;95.30
35796;DHT22;21916;52.428;13.302;2024-02-23T11:50:48;12.00;95.50
35796;DHT22;21916;52.428;13.302;2024-02-23T11:53:18;11.70;95.80
35796;DHT22;21916;52.428;13.302;2024-02-23T11:55:47;11.80;96.50
35796;DHT22;21916;52.428;13.302;2024-02-23T11:58:13;11.90;96.20
35796;DHT22;21916;52.428;13.302;2024-02-23T12:00:45;12.00;96.00
35796;DHT22;21916;52.428;13.302;2024-02-23T12:03:11;12.30;95.60
35796;DHT22;21916;52.428;13.302;2024-02-23T12:05:37;12.40;95.10
35796;DHT22;21916;52.428;13.302;2024-02-23T12:08:03;12.50;95.70
35796;DHT22;21916;52.428;13.302;2024-02-23T12:10:29;12.60;95.00
35796;DHT22;21916;52.428;13.302;2024-02-23T12:12:55;12.60;95.20
35796;DHT22;21916;52.428;13.302;2024-02-23T12:15:21;12.70;95.00
35796;DHT22;21916;52.428;13.302;2024-02-23T12:17:48;12.90;94.50
35796;DHT22;21916;52.428;13.302;2024-02-23T12:20:13;13.30;94.20
35796;DHT22;21916;52.428;13.302;2024-02-23T12:22:41;12.80;93.20
35796;DHT22;21916;52.428;13.302;2024-02-23T12:25:08;12.40;94.10
35796;DHT22;21916;52.428;13.302;2024-02-23T12:27:34;12.00;95.20
35796;DHT22;21916;52.428;13.302;2024-02-23T12:30:00;12.10;95.00
35796;DHT22;21916;52.428;13.302;2024-02-23T12:32:26;11.80;95.00
35796;DHT22;21916;52.428;13.302;2024-02-23T12:34:52;11.70;95.10
35796;DHT22;21916;52.428;13.302;2024-02-23T12:37:18;11.50;95.80
35796;DHT22;21916;52.428;13.302;2024-02-23T12:39:44;11.80;95.20
35796;DHT22;21916;52.428;13.302;2024-02-23T12:42:10;11.50;95.40
35796;DHT22;21916;52.428;13.302;2024-02-23T12:44:35;11.40;95.80
35796;DHT22;21916;52.428;13.302;2024-02-23T12:47:02;11.50;96.00
35796;DHT22;21916;52.428;13.302;2024-02-23T12:49:28;11.50;96.00
35796;DHT22;21916;52.428;13.302;2024-02-23T12:51:55;11.60;95.70
35796;DHT22;21916;52.428;13.302;2024-02-23T12:54:21;11.50;96.10
35796;DHT22;21916;52.428;13.302;2024-02-23T12:56:46;11.40;96.10
35796;DHT22;21916;52.428;13.302;2024-02-23T12:59:12;11.20;96.70
35796;DHT22;21916;52.428;13.302;2024-02-23T13:01:38;11.20;96.90
35796;DHT22;21916;52.428;13.302;2024-02-23T13:04:04;11.20;96.80
35796;DHT22;21916;52.428;13.302;2024-02-23T13:06:37;11.00;97.30
35796;DHT22;21916;52.428;13.302;2024-02-23T13:09:04;11.00;97.40
35796;DHT22;21916;52.428;13.302;2024-02-23T13:11:30;10.90;97.60
35796;DHT22;21916;52.428;13.302;2024-02-23T13:13:56;10.80;97.80
35796;DHT22;21916;52.428;13.302;2024-02-23T13:16:22;11.00;97.60
35796;DHT22;21916;52.428;13.302;2024-02-23T13:18:48;11.00;97.30
35796;DHT22;21916;52.428;13.302;2024-02-23T13:21:14;11.10;97.30
35796;DHT22;21916;52.428;13.302;2024-02-23T13:23:40;11.10;97.40
35796;DHT22;21916;52.428;13.302;2024-02-23T13:26:07;11.00;96.90
35796;DHT22;21916;52.428;13.302;2024-02-23T13:28:33;10.90;97.60
35796;DHT22;21916;52.428;13.302;2024-02-23T13:30:58;10.70;97.70
35796;DHT22;21916;52.428;13.302;2024-02-23T13:33:24;10.70;97.90
35796;DHT22;21916;52.428;13.302;2024-02-23T13:35:51;10.80;97.70
35796;DHT22;21916;52.428;13.302;2024-02-23T13:38:16;10.80;97.90
35796;DHT22;21916;52.428;13.302;2024-02-23T13:40:42;10.60;97.60
35796;DHT22;21916;52.428;13.302;2024-02-23T13:43:08;10.60;98.10
35796;DHT22;21916;52.428;13.302;2024-02-23T13:45:48;10.60;97.80
35796;DHT22;21916;52.428;13.302;2024-02-23T13:48:15;10.60;98.20
35796;DHT22;21916;52.428;13.302;2024-02-23T13:50:41;10.50;98.10
35796;DHT22;21916;52.428;13.302;2024-02-23T13:53:06;10.40;98.50
35796;DHT22;21916;52.428;13.302;2024-02-23T13:55:32;10.40;98.50
35796;DHT22;21916;52.428;13.302;2024-02-23T13:57:58;10.40;98.40
35796;DHT22;21916;52.428;13.302;2024-02-23T14:00:23;10.50;98.20
35796;DHT22;21916;52.428;13.302;2024-02-23T14:02:49;10.40;97.90
35796;DHT22;21916;52.428;13.302;2024-02-23T14:05:15;10.30;97.80
35796;DHT22;21916;52.428;13.302;2024-02-23T14:07:43;10.20;98.20
35796;DHT22;21916;52.428;13.302;2024-02-23T14:10:12;10.10;97.80
35796;DHT22;21916;52.428;13.302;2024-02-23T14:12:40;10.20;97.70
35796;DHT22;21916;52.428;13.302;2024-02-23T14:15:06;10.20;97.70
35796;DHT22;21916;52.428;13.302;2024-02-23T14:17:33;10.20;97.60
35796;DHT22;21916;52.428;13.302;2024-02-23T14:20:00;10.10;97.50
35796;DHT22;21916;52.428;13.302;2024-02-23T14:22:26;10.20;97.70
35796;DHT22;21916;52.428;13.302;2024-02-23T14:24:58;10.10;97.80
35796;DHT22;21916;52.428;13.302;2024-02-23T14:27:27;10.00;97.90
35796;DHT22;21916;52.428;13.302;2024-02-23T14:29:53;10.10;98.20
35796;DHT22;21916;52.428;13.302;2024-02-23T14:32:19;10.00;98.20
35796;DHT22;21916;52.428;13.302;2024-02-23T14:34:45;10.00;98.20
35796;DHT22;21916;52.428;13.302;2024-02-23T14:37:11;10.00;98.20
35796;DHT22;21916;52.428;13.302;2024-02-23T14:39:37;10.00;98.10
35796;DHT22;21916;52.428;13.302;2024-02-23T14:42:03;9.90;98.40
35796;DHT22;21916;52.428;13.302;2024-02-23T14:44:29;10.00;98.30
35796;DHT22;21916;52.428;13.302;2024-02-23T14:46:55;9.90;98.70
35796;DHT22;21916;52.428;13.302;2024-02-23T14:49:20;9.90;98.80
35796;DHT22;21916;52.428;13.302;2024-02-23T14:51:47;10.00;99.10
35796;DHT22;21916;52.428;13.302;2024-02-23T14:54:14;9.90;99.00
35796;DHT22;21916;52.428;13.302;2024-02-23T14:56:40;9.70;99.10
35796;DHT22;21916;52.428;13.302;2024-02-23T14:59:07;9.70;99.60
35796;DHT22;21916;52.428;13.302;2024-02-23T15:01:39;9.70;99.50
35796;DHT22;21916;52.428;13.302;2024-02-23T15:04:08;9.70;99.90
35796;DHT22;21916;52.428;13.302;2024-02-23T15:06:35;9.70;99.90
35796;DHT22;21916;52.428;13.302;2024-02-23T15:09:03;9.60;99.90
35796;DHT22;21916;52.428;13.302;2024-02-23T15:11:29;9.60;99.90
35796;DHT22;21916;52.428;13.302;2024-02-23T15:13:55;9.60;99.90
35796;DHT22;21916;52.428;13.302;2024-02-23T15:16:28;9.70;99.90
35796;DHT22;21916;52.428;13.302;2024-02-23T15:18:54;9.70;99.90